Nearby METAR Reports

 

NZCH - Christchurch Int, New Zealand
Distance from station: W 10km
Updated: 18 Nov 2019 03:30
Clear
Clear
 Wind from SSE
Wind: SSE 4 km/h
Temperature: 12°C
Dew Point: -2°C
Humidity: 38%
Barometer: 1000 hPa
Clouds: Clear
Visibility: 10 km
2019/11/17 14:30 NZCH 171430Z AUTO 15002KT 9999 NCD 12/M02 Q1000 NOSIG